< < Back
Terminal Aerodrome Forecast


Current Version              Previous Versions:   1  2  3  4  5  6  7  8  9  

Terminal Aerodrome Forecast

388
FTUS42 KMLB 222100 AAA
TAFDAB
TAF AMD
KDAB 222159Z 2222/2318 26008KT P6SM SCT050 SCT150
     FM230000 23005KT P6SM FEW030 BKN250
     FM231200 25005KT P6SM FEW030=



Latest METAR

901
SAUS80 KWBC 230958
MTRDAB
METAR KDAB 230953Z 26004KT 5SM BR FEW007 16/15 A2989 RMK AO2 SLP120
T01560150


USA.gov is the U.S. government's official web portal to all federal, state and local government web resources and services.